sensor_id;sensor_type;location;lat;lon;timestamp;P1;durP1;ratioP1;P2;durP2;ratioP2
22632;SDS011;11483;55.828;37.488;2024-01-25T00:00:42;35.33;;;10.77;;
22632;SDS011;11483;55.828;37.488;2024-01-25T00:03:08;29.67;;;10.20;;
22632;SDS011;11483;55.828;37.488;2024-01-25T00:05:34;29.00;;;11.23;;
22632;SDS011;11483;55.828;37.488;2024-01-25T00:07:59;29.10;;;11.83;;
22632;SDS011;11483;55.828;37.488;2024-01-25T00:10:25;28.03;;;10.50;;
22632;SDS011;11483;55.828;37.488;2024-01-25T00:12:51;30.97;;;11.43;;
22632;SDS011;11483;55.828;37.488;2024-01-25T00:15:17;29.60;;;10.63;;
22632;SDS011;11483;55.828;37.488;2024-01-25T00:17:43;28.20;;;11.00;;
22632;SDS011;11483;55.828;37.488;2024-01-25T00:20:09;26.50;;;10.07;;
22632;SDS011;11483;55.828;37.488;2024-01-25T00:22:35;29.53;;;11.10;;
22632;SDS011;11483;55.828;37.488;2024-01-25T00:25:03;22.33;;;9.77;;
22632;SDS011;11483;55.828;37.488;2024-01-25T00:27:29;34.53;;;11.60;;
22632;SDS011;11483;55.828;37.488;2024-01-25T00:29:55;30.97;;;11.17;;
22632;SDS011;11483;55.828;37.488;2024-01-25T00:32:21;28.93;;;9.80;;
22632;SDS011;11483;55.828;37.488;2024-01-25T00:34:47;30.43;;;11.37;;
22632;SDS011;11483;55.828;37.488;2024-01-25T00:37:13;27.90;;;11.17;;
22632;SDS011;11483;55.828;37.488;2024-01-25T00:39:39;27.77;;;11.33;;
22632;SDS011;11483;55.828;37.488;2024-01-25T00:42:06;36.00;;;12.03;;
22632;SDS011;11483;55.828;37.488;2024-01-25T00:44:32;35.80;;;12.10;;
22632;SDS011;11483;55.828;37.488;2024-01-25T00:46:59;29.93;;;11.47;;
22632;SDS011;11483;55.828;37.488;2024-01-25T00:49:25;34.80;;;12.10;;
22632;SDS011;11483;55.828;37.488;2024-01-25T00:51:53;30.37;;;11.63;;
22632;SDS011;11483;55.828;37.488;2024-01-25T00:54:27;28.60;;;11.30;;
22632;SDS011;11483;55.828;37.488;2024-01-25T00:56:53;36.10;;;11.83;;
22632;SDS011;11483;55.828;37.488;2024-01-25T00:59:20;30.93;;;11.57;;
22632;SDS011;11483;55.828;37.488;2024-01-25T01:01:47;34.83;;;12.43;;
22632;SDS011;11483;55.828;37.488;2024-01-25T01:04:14;35.77;;;11.53;;
22632;SDS011;11483;55.828;37.488;2024-01-25T01:06:40;33.03;;;11.73;;
22632;SDS011;11483;55.828;37.488;2024-01-25T01:09:06;30.67;;;11.83;;
22632;SDS011;11483;55.828;37.488;2024-01-25T01:11:33;32.53;;;11.90;;
22632;SDS011;11483;55.828;37.488;2024-01-25T01:13:59;31.13;;;12.37;;
22632;SDS011;11483;55.828;37.488;2024-01-25T01:16:25;28.67;;;11.53;;
22632;SDS011;11483;55.828;37.488;2024-01-25T01:18:51;23.80;;;8.87;;
22632;SDS011;11483;55.828;37.488;2024-01-25T01:21:17;32.43;;;10.50;;
22632;SDS011;11483;55.828;37.488;2024-01-25T01:23:43;28.67;;;10.50;;
22632;SDS011;11483;55.828;37.488;2024-01-25T01:26:08;27.43;;;10.73;;
22632;SDS011;11483;55.828;37.488;2024-01-25T01:28:35;29.37;;;11.10;;
22632;SDS011;11483;55.828;37.488;2024-01-25T01:31:01;22.13;;;8.53;;
22632;SDS011;11483;55.828;37.488;2024-01-25T01:33:27;24.07;;;10.53;;
22632;SDS011;11483;55.828;37.488;2024-01-25T01:35:53;22.90;;;8.97;;
22632;SDS011;11483;55.828;37.488;2024-01-25T01:38:19;29.60;;;10.80;;
22632;SDS011;11483;55.828;37.488;2024-01-25T01:40:45;20.03;;;7.70;;
22632;SDS011;11483;55.828;37.488;2024-01-25T01:43:18;23.70;;;9.83;;
22632;SDS011;11483;55.828;37.488;2024-01-25T01:45:45;23.50;;;7.57;;
22632;SDS011;11483;55.828;37.488;2024-01-25T01:48:11;26.00;;;9.17;;
22632;SDS011;11483;55.828;37.488;2024-01-25T01:50:37;25.40;;;9.63;;
22632;SDS011;11483;55.828;37.488;2024-01-25T01:53:03;25.50;;;9.57;;
22632;SDS011;11483;55.828;37.488;2024-01-25T01:55:30;25.27;;;9.13;;
22632;SDS011;11483;55.828;37.488;2024-01-25T01:57:57;18.77;;;8.80;;
22632;SDS011;11483;55.828;37.488;2024-01-25T02:00:23;23.93;;;8.40;;
22632;SDS011;11483;55.828;37.488;2024-01-25T02:02:50;18.13;;;7.33;;
22632;SDS011;11483;55.828;37.488;2024-01-25T02:05:16;19.80;;;8.40;;
22632;SDS011;11483;55.828;37.488;2024-01-25T02:07:42;12.90;;;5.40;;
22632;SDS011;11483;55.828;37.488;2024-01-25T02:10:09;23.63;;;8.00;;
22632;SDS011;11483;55.828;37.488;2024-01-25T02:12:35;20.77;;;8.27;;
22632;SDS011;11483;55.828;37.488;2024-01-25T02:15:02;19.53;;;9.13;;
22632;SDS011;11483;55.828;37.488;2024-01-25T02:17:28;22.50;;;9.53;;
22632;SDS011;11483;55.828;37.488;2024-01-25T02:19:54;20.90;;;8.80;;
22632;SDS011;11483;55.828;37.488;2024-01-25T02:22:20;19.37;;;7.60;;
22632;SDS011;11483;55.828;37.488;2024-01-25T02:24:46;20.10;;;7.90;;
22632;SDS011;11483;55.828;37.488;2024-01-25T02:27:12;18.90;;;7.50;;
22632;SDS011;11483;55.828;37.488;2024-01-25T02:29:39;28.93;;;8.00;;
22632;SDS011;11483;55.828;37.488;2024-01-25T02:32:05;16.43;;;7.17;;
22632;SDS011;11483;55.828;37.488;2024-01-25T02:34:31;22.43;;;7.93;;
22632;SDS011;11483;55.828;37.488;2024-01-25T02:36:57;17.13;;;7.23;;
22632;SDS011;11483;55.828;37.488;2024-01-25T02:39:23;20.67;;;8.23;;
22632;SDS011;11483;55.828;37.488;2024-01-25T02:41:49;18.87;;;7.53;;
22632;SDS011;11483;55.828;37.488;2024-01-25T02:44:15;15.10;;;6.80;;
22632;SDS011;11483;55.828;37.488;2024-01-25T02:46:40;26.93;;;7.27;;
22632;SDS011;11483;55.828;37.488;2024-01-25T02:49:10;24.20;;;8.53;;
22632;SDS011;11483;55.828;37.488;2024-01-25T02:51:36;28.83;;;8.47;;
22632;SDS011;11483;55.828;37.488;2024-01-25T02:54:02;19.37;;;7.87;;
22632;SDS011;11483;55.828;37.488;2024-01-25T02:56:28;21.40;;;7.00;;
22632;SDS011;11483;55.828;37.488;2024-01-25T02:58:59;23.00;;;7.67;;
22632;SDS011;11483;55.828;37.488;2024-01-25T03:01:26;21.93;;;7.60;;
22632;SDS011;11483;55.828;37.488;2024-01-25T03:03:52;23.60;;;7.73;;
22632;SDS011;11483;55.828;37.488;2024-01-25T03:06:21;19.93;;;7.33;;
22632;SDS011;11483;55.828;37.488;2024-01-25T03:08:47;16.03;;;6.27;;
22632;SDS011;11483;55.828;37.488;2024-01-25T03:11:13;29.30;;;8.70;;
22632;SDS011;11483;55.828;37.488;2024-01-25T03:13:39;21.63;;;7.93;;
22632;SDS011;11483;55.828;37.488;2024-01-25T03:16:05;24.37;;;7.10;;
22632;SDS011;11483;55.828;37.488;2024-01-25T03:18:31;19.47;;;7.77;;
22632;SDS011;11483;55.828;37.488;2024-01-25T03:20:57;19.97;;;7.63;;
22632;SDS011;11483;55.828;37.488;2024-01-25T03:23:23;25.87;;;8.13;;
22632;SDS011;11483;55.828;37.488;2024-01-25T03:25:48;20.03;;;7.13;;
22632;SDS011;11483;55.828;37.488;2024-01-25T03:28:15;24.33;;;8.67;;
22632;SDS011;11483;55.828;37.488;2024-01-25T03:30:44;21.93;;;7.43;;
22632;SDS011;11483;55.828;37.488;2024-01-25T03:33:10;23.23;;;8.27;;
22632;SDS011;11483;55.828;37.488;2024-01-25T03:35:36;17.17;;;6.70;;
22632;SDS011;11483;55.828;37.488;2024-01-25T03:38:02;20.47;;;7.87;;
22632;SDS011;11483;55.828;37.488;2024-01-25T03:40:27;23.37;;;7.80;;
22632;SDS011;11483;55.828;37.488;2024-01-25T03:42:53;15.93;;;7.77;;
22632;SDS011;11483;55.828;37.488;2024-01-25T03:45:19;19.60;;;8.07;;
22632;SDS011;11483;55.828;37.488;2024-01-25T03:47:45;22.23;;;7.07;;
22632;SDS011;11483;55.828;37.488;2024-01-25T03:50:11;21.87;;;6.00;;
22632;SDS011;11483;55.828;37.488;2024-01-25T03:52:37;21.57;;;7.03;;
22632;SDS011;11483;55.828;37.488;2024-01-25T03:55:03;18.03;;;7.60;;
22632;SDS011;11483;55.828;37.488;2024-01-25T03:57:29;17.13;;;7.90;;
22632;SDS011;11483;55.828;37.488;2024-01-25T03:59:55;16.47;;;7.63;;
22632;SDS011;11483;55.828;37.488;2024-01-25T04:02:21;16.43;;;6.97;;
22632;SDS011;11483;55.828;37.488;2024-01-25T04:04:47;19.77;;;7.27;;
22632;SDS011;11483;55.828;37.488;2024-01-25T04:07:13;20.90;;;7.43;;
22632;SDS011;11483;55.828;37.488;2024-01-25T04:09:39;21.00;;;6.90;;
22632;SDS011;11483;55.828;37.488;2024-01-25T04:12:05;15.37;;;7.37;;
22632;SDS011;11483;55.828;37.488;2024-01-25T04:14:31;18.13;;;6.40;;
22632;SDS011;11483;55.828;37.488;2024-01-25T04:16:57;14.53;;;5.80;;
22632;SDS011;11483;55.828;37.488;2024-01-25T04:19:23;20.00;;;7.10;;
22632;SDS011;11483;55.828;37.488;2024-01-25T04:21:49;18.73;;;7.53;;
22632;SDS011;11483;55.828;37.488;2024-01-25T04:24:15;20.63;;;6.63;;
22632;SDS011;11483;55.828;37.488;2024-01-25T04:26:41;17.30;;;6.77;;
22632;SDS011;11483;55.828;37.488;2024-01-25T04:29:07;19.93;;;7.13;;
22632;SDS011;11483;55.828;37.488;2024-01-25T04:31:33;15.40;;;5.90;;
22632;SDS011;11483;55.828;37.488;2024-01-25T04:33:59;18.70;;;7.03;;
22632;SDS011;11483;55.828;37.488;2024-01-25T04:36:25;13.00;;;6.07;;
22632;SDS011;11483;55.828;37.488;2024-01-25T04:38:51;21.67;;;6.63;;
22632;SDS011;11483;55.828;37.488;2024-01-25T04:41:17;14.10;;;6.60;;
22632;SDS011;11483;55.828;37.488;2024-01-25T04:43:43;18.87;;;7.20;;
22632;SDS011;11483;55.828;37.488;2024-01-25T04:46:09;17.60;;;7.17;;
22632;SDS011;11483;55.828;37.488;2024-01-25T04:48:34;12.57;;;5.63;;
22632;SDS011;11483;55.828;37.488;2024-01-25T04:51:01;10.63;;;4.57;;
22632;SDS011;11483;55.828;37.488;2024-01-25T04:53:27;17.90;;;6.10;;
22632;SDS011;11483;55.828;37.488;2024-01-25T04:55:56;17.37;;;6.30;;
22632;SDS011;11483;55.828;37.488;2024-01-25T04:58:24;16.53;;;6.63;;
22632;SDS011;11483;55.828;37.488;2024-01-25T05:00:50;13.87;;;5.73;;
22632;SDS011;11483;55.828;37.488;2024-01-25T05:03:17;15.27;;;6.13;;
22632;SDS011;11483;55.828;37.488;2024-01-25T05:05:44;15.73;;;6.53;;
22632;SDS011;11483;55.828;37.488;2024-01-25T05:08:10;17.87;;;6.10;;
22632;SDS011;11483;55.828;37.488;2024-01-25T05:10:36;17.90;;;6.67;;
22632;SDS011;11483;55.828;37.488;2024-01-25T05:13:02;16.27;;;6.70;;
22632;SDS011;11483;55.828;37.488;2024-01-25T05:15:29;18.23;;;7.13;;
22632;SDS011;11483;55.828;37.488;2024-01-25T05:17:54;16.83;;;7.03;;
22632;SDS011;11483;55.828;37.488;2024-01-25T05:20:20;17.00;;;6.80;;
22632;SDS011;11483;55.828;37.488;2024-01-25T05:22:46;19.30;;;6.87;;
22632;SDS011;11483;55.828;37.488;2024-01-25T05:25:13;16.67;;;7.53;;
22632;SDS011;11483;55.828;37.488;2024-01-25T05:27:39;18.37;;;6.87;;
22632;SDS011;11483;55.828;37.488;2024-01-25T05:30:05;19.10;;;5.97;;
22632;SDS011;11483;55.828;37.488;2024-01-25T05:32:31;19.63;;;7.93;;
22632;SDS011;11483;55.828;37.488;2024-01-25T05:34:57;13.30;;;5.87;;
22632;SDS011;11483;55.828;37.488;2024-01-25T05:37:23;25.90;;;7.87;;
22632;SDS011;11483;55.828;37.488;2024-01-25T05:39:49;16.63;;;6.73;;
22632;SDS011;11483;55.828;37.488;2024-01-25T05:42:15;15.60;;;7.17;;
22632;SDS011;11483;55.828;37.488;2024-01-25T05:44:42;14.03;;;5.93;;
22632;SDS011;11483;55.828;37.488;2024-01-25T05:47:08;20.73;;;7.53;;
22632;SDS011;11483;55.828;37.488;2024-01-25T05:49:33;18.70;;;6.03;;
22632;SDS011;11483;55.828;37.488;2024-01-25T05:51:59;15.00;;;6.93;;
22632;SDS011;11483;55.828;37.488;2024-01-25T05:54:25;16.33;;;6.73;;
22632;SDS011;11483;55.828;37.488;2024-01-25T05:56:51;22.83;;;7.87;;
22632;SDS011;11483;55.828;37.488;2024-01-25T05:59:17;17.37;;;5.90;;
22632;SDS011;11483;55.828;37.488;2024-01-25T06:01:43;15.90;;;6.83;;
22632;SDS011;11483;55.828;37.488;2024-01-25T06:04:09;16.13;;;6.50;;
22632;SDS011;11483;55.828;37.488;2024-01-25T06:06:35;21.13;;;7.20;;
22632;SDS011;11483;55.828;37.488;2024-01-25T06:09:01;18.17;;;7.50;;
22632;SDS011;11483;55.828;37.488;2024-01-25T06:11:28;9.37;;;5.07;;
22632;SDS011;11483;55.828;37.488;2024-01-25T06:13:54;20.70;;;8.13;;
22632;SDS011;11483;55.828;37.488;2024-01-25T06:16:20;17.70;;;6.80;;
22632;SDS011;11483;55.828;37.488;2024-01-25T06:18:46;15.60;;;7.37;;
22632;SDS011;11483;55.828;37.488;2024-01-25T06:21:12;16.93;;;7.60;;
22632;SDS011;11483;55.828;37.488;2024-01-25T06:23:38;17.03;;;7.70;;
22632;SDS011;11483;55.828;37.488;2024-01-25T06:26:04;19.97;;;6.33;;
22632;SDS011;11483;55.828;37.488;2024-01-25T06:28:30;19.63;;;7.27;;
22632;SDS011;11483;55.828;37.488;2024-01-25T06:30:56;19.30;;;5.70;;
22632;SDS011;11483;55.828;37.488;2024-01-25T06:33:22;16.33;;;7.10;;
22632;SDS011;11483;55.828;37.488;2024-01-25T06:35:48;13.27;;;5.90;;
22632;SDS011;11483;55.828;37.488;2024-01-25T06:38:14;19.73;;;7.40;;
22632;SDS011;11483;55.828;37.488;2024-01-25T06:40:40;17.77;;;7.40;;
22632;SDS011;11483;55.828;37.488;2024-01-25T06:43:06;17.60;;;7.67;;
22632;SDS011;11483;55.828;37.488;2024-01-25T06:45:32;24.47;;;10.63;;
22632;SDS011;11483;55.828;37.488;2024-01-25T06:47:58;19.03;;;7.90;;
22632;SDS011;11483;55.828;37.488;2024-01-25T06:50:23;17.17;;;7.03;;
22632;SDS011;11483;55.828;37.488;2024-01-25T06:52:49;18.40;;;7.00;;
22632;SDS011;11483;55.828;37.488;2024-01-25T06:55:15;16.80;;;7.03;;
22632;SDS011;11483;55.828;37.488;2024-01-25T06:57:41;18.47;;;7.33;;
22632;SDS011;11483;55.828;37.488;2024-01-25T07:00:07;25.73;;;7.80;;
22632;SDS011;11483;55.828;37.488;2024-01-25T07:02:36;20.97;;;7.00;;
22632;SDS011;11483;55.828;37.488;2024-01-25T07:05:02;15.07;;;6.80;;
22632;SDS011;11483;55.828;37.488;2024-01-25T07:07:28;17.80;;;6.87;;
22632;SDS011;11483;55.828;37.488;2024-01-25T07:09:54;16.20;;;6.20;;
22632;SDS011;11483;55.828;37.488;2024-01-25T07:12:20;15.10;;;7.37;;
22632;SDS011;11483;55.828;37.488;2024-01-25T07:14:46;17.90;;;7.00;;
22632;SDS011;11483;55.828;37.488;2024-01-25T07:17:11;21.03;;;9.00;;
22632;SDS011;11483;55.828;37.488;2024-01-25T07:19:38;23.40;;;8.30;;
22632;SDS011;11483;55.828;37.488;2024-01-25T07:22:03;15.23;;;6.50;;
22632;SDS011;11483;55.828;37.488;2024-01-25T07:24:29;19.10;;;8.27;;
22632;SDS011;11483;55.828;37.488;2024-01-25T07:26:56;17.50;;;8.10;;
22632;SDS011;11483;55.828;37.488;2024-01-25T07:29:22;18.63;;;8.30;;
22632;SDS011;11483;55.828;37.488;2024-01-25T07:32:02;22.57;;;8.93;;
22632;SDS011;11483;55.828;37.488;2024-01-25T07:34:29;20.77;;;7.03;;
22632;SDS011;11483;55.828;37.488;2024-01-25T07:36:55;20.30;;;7.80;;
22632;SDS011;11483;55.828;37.488;2024-01-25T07:39:21;20.13;;;7.27;;
22632;SDS011;11483;55.828;37.488;2024-01-25T07:41:47;17.73;;;8.23;;
22632;SDS011;11483;55.828;37.488;2024-01-25T07:44:13;16.40;;;7.23;;
22632;SDS011;11483;55.828;37.488;2024-01-25T07:46:39;21.33;;;8.17;;
22632;SDS011;11483;55.828;37.488;2024-01-25T07:49:08;15.77;;;7.17;;
22632;SDS011;11483;55.828;37.488;2024-01-25T07:51:34;15.27;;;7.37;;
22632;SDS011;11483;55.828;37.488;2024-01-25T07:54:00;21.17;;;8.17;;
22632;SDS011;11483;55.828;37.488;2024-01-25T07:56:27;20.17;;;8.07;;
22632;SDS011;11483;55.828;37.488;2024-01-25T07:58:54;22.13;;;7.97;;
22632;SDS011;11483;55.828;37.488;2024-01-25T08:01:20;17.40;;;7.93;;
22632;SDS011;11483;55.828;37.488;2024-01-25T08:03:46;22.17;;;7.97;;
22632;SDS011;11483;55.828;37.488;2024-01-25T08:06:12;17.97;;;7.10;;
22632;SDS011;11483;55.828;37.488;2024-01-25T08:08:39;20.97;;;7.60;;
22632;SDS011;11483;55.828;37.488;2024-01-25T08:11:05;22.17;;;7.80;;
22632;SDS011;11483;55.828;37.488;2024-01-25T08:13:31;20.37;;;8.07;;
22632;SDS011;11483;55.828;37.488;2024-01-25T08:15:57;18.67;;;7.70;;
22632;SDS011;11483;55.828;37.488;2024-01-25T08:18:23;15.90;;;6.90;;
22632;SDS011;11483;55.828;37.488;2024-01-25T08:20:50;16.77;;;7.67;;
22632;SDS011;11483;55.828;37.488;2024-01-25T08:23:16;21.00;;;8.33;;
22632;SDS011;11483;55.828;37.488;2024-01-25T08:25:43;19.23;;;8.00;;
22632;SDS011;11483;55.828;37.488;2024-01-25T08:28:10;16.27;;;6.27;;
22632;SDS011;11483;55.828;37.488;2024-01-25T08:30:36;16.13;;;6.77;;
22632;SDS011;11483;55.828;37.488;2024-01-25T08:33:02;12.30;;;5.87;;
22632;SDS011;11483;55.828;37.488;2024-01-25T08:35:28;19.10;;;7.33;;
22632;SDS011;11483;55.828;37.488;2024-01-25T08:37:57;15.73;;;7.30;;
22632;SDS011;11483;55.828;37.488;2024-01-25T08:40:23;19.93;;;8.47;;
22632;SDS011;11483;55.828;37.488;2024-01-25T08:42:49;20.17;;;7.23;;
22632;SDS011;11483;55.828;37.488;2024-01-25T08:45:15;13.33;;;6.17;;
22632;SDS011;11483;55.828;37.488;2024-01-25T08:47:41;19.20;;;7.50;;
22632;SDS011;11483;55.828;37.488;2024-01-25T08:50:11;18.87;;;7.67;;
22632;SDS011;11483;55.828;37.488;2024-01-25T08:52:37;17.37;;;7.00;;
22632;SDS011;11483;55.828;37.488;2024-01-25T08:55:06;14.50;;;6.50;;
22632;SDS011;11483;55.828;37.488;2024-01-25T08:57:32;15.83;;;7.17;;
22632;SDS011;11483;55.828;37.488;2024-01-25T08:59:58;15.93;;;6.97;;
22632;SDS011;11483;55.828;37.488;2024-01-25T09:02:25;18.30;;;7.70;;
22632;SDS011;11483;55.828;37.488;2024-01-25T09:04:52;18.77;;;7.00;;
22632;SDS011;11483;55.828;37.488;2024-01-25T09:07:19;22.93;;;8.43;;
22632;SDS011;11483;55.828;37.488;2024-01-25T09:09:45;16.47;;;6.43;;
22632;SDS011;11483;55.828;37.488;2024-01-25T09:12:11;17.20;;;7.43;;
22632;SDS011;11483;55.828;37.488;2024-01-25T09:14:38;17.73;;;6.83;;
22632;SDS011;11483;55.828;37.488;2024-01-25T09:17:04;18.17;;;6.87;;
22632;SDS011;11483;55.828;37.488;2024-01-25T09:19:30;15.00;;;7.20;;
22632;SDS011;11483;55.828;37.488;2024-01-25T09:21:56;17.83;;;6.50;;
22632;SDS011;11483;55.828;37.488;2024-01-25T09:24:26;14.23;;;6.43;;
22632;SDS011;11483;55.828;37.488;2024-01-25T09:26:52;16.33;;;6.80;;
22632;SDS011;11483;55.828;37.488;2024-01-25T09:29:18;9.80;;;5.37;;
22632;SDS011;11483;55.828;37.488;2024-01-25T09:31:44;15.40;;;6.50;;
22632;SDS011;11483;55.828;37.488;2024-01-25T09:34:10;13.27;;;6.07;;
22632;SDS011;11483;55.828;37.488;2024-01-25T09:36:36;13.83;;;7.03;;
22632;SDS011;11483;55.828;37.488;2024-01-25T09:39:02;11.63;;;5.50;;
22632;SDS011;11483;55.828;37.488;2024-01-25T09:41:30;13.80;;;6.70;;
22632;SDS011;11483;55.828;37.488;2024-01-25T09:43:56;15.30;;;6.73;;
22632;SDS011;11483;55.828;37.488;2024-01-25T09:46:22;12.40;;;5.93;;
22632;SDS011;11483;55.828;37.488;2024-01-25T09:48:49;22.50;;;7.70;;
22632;SDS011;11483;55.828;37.488;2024-01-25T09:51:15;13.33;;;5.27;;
22632;SDS011;11483;55.828;37.488;2024-01-25T09:53:41;14.43;;;6.50;;
22632;SDS011;11483;55.828;37.488;2024-01-25T09:56:07;12.93;;;6.33;;
22632;SDS011;11483;55.828;37.488;2024-01-25T09:58:41;18.03;;;7.17;;
22632;SDS011;11483;55.828;37.488;2024-01-25T10:01:08;17.40;;;6.87;;
22632;SDS011;11483;55.828;37.488;2024-01-25T10:03:36;24.80;;;6.33;;
22632;SDS011;11483;55.828;37.488;2024-01-25T10:06:02;12.33;;;5.57;;
22632;SDS011;11483;55.828;37.488;2024-01-25T10:08:29;12.90;;;6.13;;
22632;SDS011;11483;55.828;37.488;2024-01-25T10:10:55;14.97;;;6.63;;
22632;SDS011;11483;55.828;37.488;2024-01-25T10:13:21;14.30;;;6.93;;
22632;SDS011;11483;55.828;37.488;2024-01-25T10:15:47;14.27;;;5.47;;
22632;SDS011;11483;55.828;37.488;2024-01-25T10:18:14;14.97;;;7.10;;
22632;SDS011;11483;55.828;37.488;2024-01-25T10:20:42;15.30;;;7.37;;
22632;SDS011;11483;55.828;37.488;2024-01-25T10:23:08;17.30;;;7.47;;
22632;SDS011;11483;55.828;37.488;2024-01-25T10:25:35;12.80;;;5.50;;
22632;SDS011;11483;55.828;37.488;2024-01-25T10:28:04;13.07;;;6.33;;
22632;SDS011;11483;55.828;37.488;2024-01-25T10:30:31;14.10;;;6.40;;
22632;SDS011;11483;55.828;37.488;2024-01-25T10:32:58;15.17;;;5.33;;
22632;SDS011;11483;55.828;37.488;2024-01-25T10:35:28;15.80;;;6.07;;
22632;SDS011;11483;55.828;37.488;2024-01-25T10:37:55;20.80;;;6.70;;
22632;SDS011;11483;55.828;37.488;2024-01-25T10:40:21;20.33;;;6.13;;
22632;SDS011;11483;55.828;37.488;2024-01-25T10:42:48;18.13;;;6.70;;
22632;SDS011;11483;55.828;37.488;2024-01-25T10:45:14;13.03;;;6.03;;
22632;SDS011;11483;55.828;37.488;2024-01-25T10:47:40;16.87;;;6.07;;
22632;SDS011;11483;55.828;37.488;2024-01-25T10:50:07;16.27;;;6.90;;
22632;SDS011;11483;55.828;37.488;2024-01-25T10:52:37;21.03;;;7.13;;
22632;SDS011;11483;55.828;37.488;2024-01-25T10:55:04;13.00;;;6.27;;
22632;SDS011;11483;55.828;37.488;2024-01-25T10:57:37;12.83;;;5.80;;
22632;SDS011;11483;55.828;37.488;2024-01-25T11:00:09;15.93;;;6.73;;
22632;SDS011;11483;55.828;37.488;2024-01-25T11:02:37;14.40;;;6.33;;
22632;SDS011;11483;55.828;37.488;2024-01-25T11:05:16;14.80;;;6.70;;
22632;SDS011;11483;55.828;37.488;2024-01-25T11:07:49;18.63;;;5.47;;
22632;SDS011;11483;55.828;37.488;2024-01-25T11:10:20;18.70;;;6.67;;
22632;SDS011;11483;55.828;37.488;2024-01-25T11:12:51;15.97;;;6.07;;
22632;SDS011;11483;55.828;37.488;2024-01-25T11:15:38;15.03;;;6.13;;
22632;SDS011;11483;55.828;37.488;2024-01-25T11:18:07;18.90;;;6.80;;
22632;SDS011;11483;55.828;37.488;2024-01-25T11:20:34;16.83;;;6.90;;
22632;SDS011;11483;55.828;37.488;2024-01-25T11:23:04;16.00;;;6.73;;
22632;SDS011;11483;55.828;37.488;2024-01-25T11:25:35;16.73;;;6.83;;
22632;SDS011;11483;55.828;37.488;2024-01-25T11:28:03;18.87;;;7.27;;
22632;SDS011;11483;55.828;37.488;2024-01-25T11:30:32;17.10;;;6.67;;
22632;SDS011;11483;55.828;37.488;2024-01-25T11:32:59;16.37;;;6.20;;
22632;SDS011;11483;55.828;37.488;2024-01-25T11:35:25;23.03;;;6.90;;
22632;SDS011;11483;55.828;37.488;2024-01-25T11:37:52;21.60;;;8.40;;
22632;SDS011;11483;55.828;37.488;2024-01-25T11:40:18;20.03;;;7.73;;
22632;SDS011;11483;55.828;37.488;2024-01-25T11:42:46;20.10;;;8.10;;
22632;SDS011;11483;55.828;37.488;2024-01-25T11:45:13;21.40;;;7.53;;
22632;SDS011;11483;55.828;37.488;2024-01-25T11:47:40;18.10;;;7.13;;
22632;SDS011;11483;55.828;37.488;2024-01-25T11:50:08;17.40;;;7.83;;
22632;SDS011;11483;55.828;37.488;2024-01-25T11:52:35;17.53;;;7.20;;
22632;SDS011;11483;55.828;37.488;2024-01-25T11:55:02;19.53;;;6.93;;
22632;SDS011;11483;55.828;37.488;2024-01-25T11:57:34;21.80;;;7.30;;
22632;SDS011;11483;55.828;37.488;2024-01-25T12:00:02;29.97;;;8.67;;
22632;SDS011;11483;55.828;37.488;2024-01-25T12:02:29;17.33;;;7.43;;
22632;SDS011;11483;55.828;37.488;2024-01-25T12:04:57;16.47;;;6.73;;
22632;SDS011;11483;55.828;37.488;2024-01-25T12:07:23;16.90;;;7.53;;
22632;SDS011;11483;55.828;37.488;2024-01-25T12:10:07;28.07;;;9.27;;
22632;SDS011;11483;55.828;37.488;2024-01-25T12:12:35;19.40;;;8.67;;
22632;SDS011;11483;55.828;37.488;2024-01-25T12:15:05;19.43;;;7.93;;
22632;SDS011;11483;55.828;37.488;2024-01-25T12:17:32;21.80;;;9.00;;
22632;SDS011;11483;55.828;37.488;2024-01-25T12:20:05;20.87;;;8.53;;
22632;SDS011;11483;55.828;37.488;2024-01-25T12:22:36;26.73;;;8.33;;
22632;SDS011;11483;55.828;37.488;2024-01-25T12:25:08;25.67;;;8.47;;
22632;SDS011;11483;55.828;37.488;2024-01-25T12:27:35;31.63;;;8.50;;
22632;SDS011;11483;55.828;37.488;2024-01-25T12:30:02;20.63;;;8.23;;
22632;SDS011;11483;55.828;37.488;2024-01-25T12:32:29;31.47;;;10.47;;
22632;SDS011;11483;55.828;37.488;2024-01-25T12:34:55;23.07;;;9.53;;
22632;SDS011;11483;55.828;37.488;2024-01-25T12:37:22;25.03;;;8.47;;
22632;SDS011;11483;55.828;37.488;2024-01-25T12:39:50;30.90;;;9.77;;
22632;SDS011;11483;55.828;37.488;2024-01-25T12:42:17;23.87;;;9.33;;
22632;SDS011;11483;55.828;37.488;2024-01-25T12:44:43;21.57;;;8.27;;
22632;SDS011;11483;55.828;37.488;2024-01-25T12:47:11;24.03;;;9.00;;
22632;SDS011;11483;55.828;37.488;2024-01-25T12:49:40;27.00;;;9.93;;
22632;SDS011;11483;55.828;37.488;2024-01-25T12:52:11;33.77;;;10.17;;
22632;SDS011;11483;55.828;37.488;2024-01-25T12:54:38;24.30;;;10.43;;
22632;SDS011;11483;55.828;37.488;2024-01-25T12:57:05;29.03;;;9.73;;
22632;SDS011;11483;55.828;37.488;2024-01-25T12:59:32;27.67;;;10.10;;
22632;SDS011;11483;55.828;37.488;2024-01-25T13:02:01;33.97;;;11.07;;
22632;SDS011;11483;55.828;37.488;2024-01-25T13:04:28;25.60;;;10.03;;
22632;SDS011;11483;55.828;37.488;2024-01-25T13:06:55;28.93;;;9.00;;
22632;SDS011;11483;55.828;37.488;2024-01-25T13:09:21;27.33;;;9.87;;
22632;SDS011;11483;55.828;37.488;2024-01-25T13:11:48;26.47;;;11.03;;
22632;SDS011;11483;55.828;37.488;2024-01-25T13:14:14;27.77;;;11.00;;
22632;SDS011;11483;55.828;37.488;2024-01-25T13:16:40;22.73;;;10.17;;
22632;SDS011;11483;55.828;37.488;2024-01-25T13:19:06;28.87;;;11.13;;
22632;SDS011;11483;55.828;37.488;2024-01-25T13:21:32;27.73;;;11.13;;
22632;SDS011;11483;55.828;37.488;2024-01-25T13:24:01;26.97;;;10.43;;
22632;SDS011;11483;55.828;37.488;2024-01-25T13:26:27;28.20;;;10.47;;
22632;SDS011;11483;55.828;37.488;2024-01-25T13:28:53;32.77;;;11.03;;
22632;SDS011;11483;55.828;37.488;2024-01-25T13:31:37;38.43;;;11.33;;
22632;SDS011;11483;55.828;37.488;2024-01-25T13:34:03;31.20;;;10.97;;
22632;SDS011;11483;55.828;37.488;2024-01-25T13:36:29;27.80;;;10.13;;
22632;SDS011;11483;55.828;37.488;2024-01-25T13:38:55;29.10;;;11.17;;
22632;SDS011;11483;55.828;37.488;2024-01-25T13:41:21;31.10;;;10.70;;
22632;SDS011;11483;55.828;37.488;2024-01-25T13:43:46;24.83;;;11.27;;
22632;SDS011;11483;55.828;37.488;2024-01-25T13:46:12;27.90;;;11.47;;
22632;SDS011;11483;55.828;37.488;2024-01-25T13:48:38;35.53;;;11.53;;
22632;SDS011;11483;55.828;37.488;2024-01-25T13:51:04;32.77;;;12.43;;
22632;SDS011;11483;55.828;37.488;2024-01-25T13:53:31;30.87;;;11.87;;
22632;SDS011;11483;55.828;37.488;2024-01-25T13:55:57;31.33;;;12.30;;
22632;SDS011;11483;55.828;37.488;2024-01-25T13:58:22;31.17;;;11.30;;
22632;SDS011;11483;55.828;37.488;2024-01-25T14:00:48;43.87;;;11.80;;
22632;SDS011;11483;55.828;37.488;2024-01-25T14:03:15;33.50;;;12.07;;
22632;SDS011;11483;55.828;37.488;2024-01-25T14:05:44;38.17;;;12.90;;
22632;SDS011;11483;55.828;37.488;2024-01-25T14:08:10;31.77;;;13.37;;
22632;SDS011;11483;55.828;37.488;2024-01-25T14:10:35;31.07;;;11.80;;
22632;SDS011;11483;55.828;37.488;2024-01-25T14:13:02;29.00;;;11.97;;
22632;SDS011;11483;55.828;37.488;2024-01-25T14:15:28;29.93;;;11.40;;